sensor_id;sensor_type;location;lat;lon;timestamp;pressure;altitude;pressure_sealevel;temperature;humidity
72798;BME280;61084;55.816;37.036;2023-04-02T00:07:52;98797.44;;;7.93;69.39
72798;BME280;61084;55.816;37.036;2023-04-02T00:10:39;98796.50;;;7.94;69.41
72798;BME280;61084;55.816;37.036;2023-04-02T00:15:42;98800.81;;;7.95;68.99
72798;BME280;61084;55.816;37.036;2023-04-02T00:18:13;98799.88;;;7.96;68.98
72798;BME280;61084;55.816;37.036;2023-04-02T00:20:43;98799.88;;;7.96;69.04
72798;BME280;61084;55.816;37.036;2023-04-02T00:23:12;98805.06;;;7.98;69.46
72798;BME280;61084;55.816;37.036;2023-04-02T00:25:40;98808.50;;;7.98;69.21
72798;BME280;61084;55.816;37.036;2023-04-02T00:28:18;98803.25;;;7.98;69.06
72798;BME280;61084;55.816;37.036;2023-04-02T00:30:52;98807.59;;;7.99;69.30
72798;BME280;61084;55.816;37.036;2023-04-02T00:33:19;98811.03;;;8.00;69.56
72798;BME280;61084;55.816;37.036;2023-04-02T00:35:47;98822.34;;;8.00;69.36
72798;BME280;61084;55.816;37.036;2023-04-02T00:38:29;98816.28;;;8.00;69.49
72798;BME280;61084;55.816;37.036;2023-04-02T00:40:58;98817.28;;;7.97;69.41
72798;BME280;61084;55.816;37.036;2023-04-02T00:43:28;98820.75;;;7.98;69.77
72798;BME280;61084;55.816;37.036;2023-04-02T00:46:01;98819.78;;;7.99;69.44
72798;BME280;61084;55.816;37.036;2023-04-02T00:53:48;98830.19;;;8.00;69.55
72798;BME280;61084;55.816;37.036;2023-04-02T00:56:22;98835.41;;;8.00;70.05
72798;BME280;61084;55.816;37.036;2023-04-02T00:58:52;98830.19;;;8.00;69.38
72798;BME280;61084;55.816;37.036;2023-04-02T01:01:23;98836.25;;;8.01;69.68
72798;BME280;61084;55.816;37.036;2023-04-02T01:04:01;98829.25;;;8.01;69.93
72798;BME280;61084;55.816;37.036;2023-04-02T01:06:36;98839.63;;;8.03;70.05
72798;BME280;61084;55.816;37.036;2023-04-02T01:12:10;98834.34;;;8.04;69.91
72798;BME280;61084;55.816;37.036;2023-04-02T01:14:48;98831.72;;;8.04;70.19
72798;BME280;61084;55.816;37.036;2023-04-02T01:17:42;98836.00;;;8.05;69.91
72798;BME280;61084;55.816;37.036;2023-04-02T01:23:08;98841.94;;;8.09;70.13
72798;BME280;61084;55.816;37.036;2023-04-02T01:28:25;98830.53;;;8.10;69.77
72798;BME280;61084;55.816;37.036;2023-04-02T01:30:55;98830.44;;;8.11;69.82
72798;BME280;61084;55.816;37.036;2023-04-02T01:33:27;98843.47;;;8.13;70.07
72798;BME280;61084;55.816;37.036;2023-04-02T01:36:14;98845.13;;;8.14;70.22
72798;BME280;61084;55.816;37.036;2023-04-02T01:38:49;98845.13;;;8.14;69.96
72798;BME280;61084;55.816;37.036;2023-04-02T01:41:33;98834.69;;;8.14;70.21
72798;BME280;61084;55.816;37.036;2023-04-02T01:44:11;98834.63;;;8.15;69.80
72798;BME280;61084;55.816;37.036;2023-04-02T01:46:40;98833.78;;;8.15;69.83
72798;BME280;61084;55.816;37.036;2023-04-02T01:49:24;98837.16;;;8.17;69.89
72798;BME280;61084;55.816;37.036;2023-04-02T01:51:53;98828.44;;;8.16;70.30
72798;BME280;61084;55.816;37.036;2023-04-02T01:54:24;98836.97;;;8.20;69.76
72798;BME280;61084;55.816;37.036;2023-04-02T01:56:51;98827.34;;;8.20;70.13
72798;BME280;61084;55.816;37.036;2023-04-02T01:59:19;98837.75;;;8.22;69.71
72798;BME280;61084;55.816;37.036;2023-04-02T02:02:00;98835.97;;;8.22;69.85
72798;BME280;61084;55.816;37.036;2023-04-02T02:04:27;98840.19;;;8.25;70.15
72798;BME280;61084;55.816;37.036;2023-04-02T02:06:55;98839.34;;;8.24;70.11
72798;BME280;61084;55.816;37.036;2023-04-02T02:09:26;98832.34;;;8.25;69.85
72798;BME280;61084;55.816;37.036;2023-04-02T02:11:53;98836.69;;;8.26;70.07
72798;BME280;61084;55.816;37.036;2023-04-02T02:14:23;98832.22;;;8.28;69.95
72798;BME280;61084;55.816;37.036;2023-04-02T02:17:13;98836.53;;;8.29;70.09
72798;BME280;61084;55.816;37.036;2023-04-02T02:19:46;98833.09;;;8.28;70.29
72798;BME280;61084;55.816;37.036;2023-04-02T02:24:53;98838.38;;;8.27;70.10
72798;BME280;61084;55.816;37.036;2023-04-02T02:29:50;98835.75;;;8.27;70.34
72798;BME280;61084;55.816;37.036;2023-04-02T02:32:25;98827.91;;;8.27;70.02
72798;BME280;61084;55.816;37.036;2023-04-02T02:35:15;98832.22;;;8.28;70.40
72798;BME280;61084;55.816;37.036;2023-04-02T02:37:46;98834.84;;;8.28;69.83
72798;BME280;61084;55.816;37.036;2023-04-02T02:40:19;98833.00;;;8.30;69.94
72798;BME280;61084;55.816;37.036;2023-04-02T02:42:51;98835.69;;;8.28;69.98
72798;BME280;61084;55.816;37.036;2023-04-02T02:45:22;98838.31;;;8.28;69.90
72798;BME280;61084;55.816;37.036;2023-04-02T02:47:51;98839.13;;;8.29;69.84
72798;BME280;61084;55.816;37.036;2023-04-02T02:50:24;98842.59;;;8.29;70.14
72798;BME280;61084;55.816;37.036;2023-04-02T02:52:58;98840.00;;;8.29;69.97
72798;BME280;61084;55.816;37.036;2023-04-02T02:55:33;98842.75;;;8.26;69.92
72798;BME280;61084;55.816;37.036;2023-04-02T02:58:10;98845.41;;;8.25;70.29
72798;BME280;61084;55.816;37.036;2023-04-02T03:00:45;98842.91;;;8.23;69.94
72798;BME280;61084;55.816;37.036;2023-04-02T03:03:16;98842.03;;;8.23;70.26
72798;BME280;61084;55.816;37.036;2023-04-02T03:05:56;98844.75;;;8.21;69.66
72798;BME280;61084;55.816;37.036;2023-04-02T03:09:02;98850.88;;;8.20;69.97
72798;BME280;61084;55.816;37.036;2023-04-02T03:11:56;98851.88;;;8.18;69.77
72798;BME280;61084;55.816;37.036;2023-04-02T03:14:43;98858.97;;;8.16;70.08
72798;BME280;61084;55.816;37.036;2023-04-02T03:17:22;98855.75;;;8.11;69.95
72798;BME280;61084;55.816;37.036;2023-04-02T03:19:56;98857.69;;;8.07;69.75
72798;BME280;61084;55.816;37.036;2023-04-02T03:22:37;98855.06;;;8.07;70.17
72798;BME280;61084;55.816;37.036;2023-04-02T03:27:45;98859.44;;;8.07;70.12
72798;BME280;61084;55.816;37.036;2023-04-02T03:32:50;98861.13;;;8.08;69.84
72798;BME280;61084;55.816;37.036;2023-04-02T03:35:26;98864.59;;;8.08;69.79
72798;BME280;61084;55.816;37.036;2023-04-02T03:38:17;98866.38;;;8.08;70.14
72798;BME280;61084;55.816;37.036;2023-04-02T03:41:04;98868.06;;;8.09;70.07
72798;BME280;61084;55.816;37.036;2023-04-02T03:43:39;98867.97;;;8.10;70.19
72798;BME280;61084;55.816;37.036;2023-04-02T03:52:12;98866.22;;;8.11;69.83
72798;BME280;61084;55.816;37.036;2023-04-02T03:54:40;98869.66;;;8.11;70.45
72798;BME280;61084;55.816;37.036;2023-04-02T03:57:30;98863.66;;;8.09;70.43
72798;BME280;61084;55.816;37.036;2023-04-02T04:00:07;98866.22;;;8.11;70.08
72798;BME280;61084;55.816;37.036;2023-04-02T04:03:10;98861.00;;;8.11;70.30
72798;BME280;61084;55.816;37.036;2023-04-02T04:05:59;98854.75;;;8.13;70.35
72798;BME280;61084;55.816;37.036;2023-04-02T04:08:42;98860.66;;;8.17;69.94
72798;BME280;61084;55.816;37.036;2023-04-02T04:11:15;98861.53;;;8.17;70.35
72798;BME280;61084;55.816;37.036;2023-04-02T04:14:01;98870.91;;;8.21;70.25
72798;BME280;61084;55.816;37.036;2023-04-02T04:16:38;98863.06;;;8.21;69.99
72798;BME280;61084;55.816;37.036;2023-04-02T04:19:21;98867.44;;;8.21;70.05
72798;BME280;61084;55.816;37.036;2023-04-02T04:21:50;98877.69;;;8.25;69.93
72798;BME280;61084;55.816;37.036;2023-04-02T04:24:23;98871.44;;;8.28;70.38
72798;BME280;61084;55.816;37.036;2023-04-02T04:26:58;98868.84;;;8.28;70.20
72798;BME280;61084;55.816;37.036;2023-04-02T04:31:57;98881.72;;;8.31;70.39
72798;BME280;61084;55.816;37.036;2023-04-02T04:34:39;98883.34;;;8.33;70.11
72798;BME280;61084;55.816;37.036;2023-04-02T04:37:19;98889.44;;;8.34;70.00
72798;BME280;61084;55.816;37.036;2023-04-02T04:39:56;98889.34;;;8.35;70.25
72798;BME280;61084;55.816;37.036;2023-04-02T04:42:27;98890.09;;;8.38;70.12
72798;BME280;61084;55.816;37.036;2023-04-02T04:45:17;98885.81;;;8.37;70.16
72798;BME280;61084;55.816;37.036;2023-04-02T04:48:01;98891.81;;;8.39;70.18
72798;BME280;61084;55.816;37.036;2023-04-02T04:50:34;98897.81;;;8.41;70.09
72798;BME280;61084;55.816;37.036;2023-04-02T04:53:06;98899.66;;;8.39;69.72
72798;BME280;61084;55.816;37.036;2023-04-02T04:55:39;98891.66;;;8.42;69.96
72798;BME280;61084;55.816;37.036;2023-04-02T05:01:26;98892.41;;;8.44;69.45
72798;BME280;61084;55.816;37.036;2023-04-02T05:04:03;98884.63;;;8.42;69.69
72798;BME280;61084;55.816;37.036;2023-04-02T05:06:48;98889.88;;;8.42;70.09
72798;BME280;61084;55.816;37.036;2023-04-02T05:09:27;98894.09;;;8.45;69.88
72798;BME280;61084;55.816;37.036;2023-04-02T05:12:26;98894.94;;;8.45;70.00
72798;BME280;61084;55.816;37.036;2023-04-02T05:17:45;98907.47;;;8.56;69.67
72798;BME280;61084;55.816;37.036;2023-04-02T05:20:23;98907.47;;;8.56;69.90
72798;BME280;61084;55.816;37.036;2023-04-02T05:23:01;98898.69;;;8.57;69.44
72798;BME280;61084;55.816;37.036;2023-04-02T05:25:34;98909.84;;;8.60;69.37
72798;BME280;61084;55.816;37.036;2023-04-02T05:28:16;98907.13;;;8.62;69.20
72798;BME280;61084;55.816;37.036;2023-04-02T05:31:14;98905.38;;;8.62;69.44
72798;BME280;61084;55.816;37.036;2023-04-02T05:33:45;98902.84;;;8.61;69.24
72798;BME280;61084;55.816;37.036;2023-04-02T05:36:19;98906.38;;;8.60;69.39
72798;BME280;61084;55.816;37.036;2023-04-02T05:38:50;98914.13;;;8.61;69.41
72798;BME280;61084;55.816;37.036;2023-04-02T05:41:39;98917.53;;;8.63;69.15
72798;BME280;61084;55.816;37.036;2023-04-02T05:44:27;98914.91;;;8.63;69.31
72798;BME280;61084;55.816;37.036;2023-04-02T05:47:06;98915.81;;;8.62;68.90
72798;BME280;61084;55.816;37.036;2023-04-02T05:52:10;98911.34;;;8.64;68.90
72798;BME280;61084;55.816;37.036;2023-04-02T05:54:43;98912.88;;;8.68;68.86
72798;BME280;61084;55.816;37.036;2023-04-02T05:57:15;98914.59;;;8.69;68.99
72798;BME280;61084;55.816;37.036;2023-04-02T05:59:47;98914.59;;;8.69;68.71
72798;BME280;61084;55.816;37.036;2023-04-02T06:02:40;98921.50;;;8.70;68.61
72798;BME280;61084;55.816;37.036;2023-04-02T06:05:19;98915.25;;;8.73;68.79
72798;BME280;61084;55.816;37.036;2023-04-02T06:08:10;98918.56;;;8.76;68.82
72798;BME280;61084;55.816;37.036;2023-04-02T06:10:55;98918.56;;;8.76;68.61
72798;BME280;61084;55.816;37.036;2023-04-02T06:13:31;98926.94;;;8.83;68.91
72798;BME280;61084;55.816;37.036;2023-04-02T06:15:58;98926.84;;;8.84;69.10
72798;BME280;61084;55.816;37.036;2023-04-02T06:18:33;98925.16;;;8.83;68.72
72798;BME280;61084;55.816;37.036;2023-04-02T06:21:01;98916.19;;;8.87;68.66
72798;BME280;61084;55.816;37.036;2023-04-02T06:32:01;98935.00;;;9.11;68.62
72798;BME280;61084;55.816;37.036;2023-04-02T06:34:29;98929.56;;;9.14;68.86
72798;BME280;61084;55.816;37.036;2023-04-02T06:39:43;98932.78;;;9.19;68.58
72798;BME280;61084;55.816;37.036;2023-04-02T06:42:16;98935.22;;;9.22;68.31
72798;BME280;61084;55.816;37.036;2023-04-02T06:44:57;98934.31;;;9.23;68.04
72798;BME280;61084;55.816;37.036;2023-04-02T06:47:40;98933.31;;;9.26;68.19
72798;BME280;61084;55.816;37.036;2023-04-02T06:50:21;98936.84;;;9.25;68.07
72798;BME280;61084;55.816;37.036;2023-04-02T06:52:54;98943.06;;;9.22;67.71
72798;BME280;61084;55.816;37.036;2023-04-02T06:55:49;98941.31;;;9.23;67.99
72798;BME280;61084;55.816;37.036;2023-04-02T06:58:21;98940.41;;;9.24;68.05
72798;BME280;61084;55.816;37.036;2023-04-02T07:00:49;98942.06;;;9.25;67.80
72798;BME280;61084;55.816;37.036;2023-04-02T07:03:38;98945.38;;;9.28;67.75
72798;BME280;61084;55.816;37.036;2023-04-02T07:06:16;98941.75;;;9.31;68.16
72798;BME280;61084;55.816;37.036;2023-04-02T07:08:44;98944.09;;;9.35;67.66
72798;BME280;61084;55.816;37.036;2023-04-02T07:11:15;98941.41;;;9.37;67.76
72798;BME280;61084;55.816;37.036;2023-04-02T07:13:42;98949.84;;;9.42;67.66
72798;BME280;61084;55.816;37.036;2023-04-02T07:16:20;98957.13;;;9.37;67.57
72798;BME280;61084;55.816;37.036;2023-04-02T07:18:46;98958.91;;;9.36;67.54
72798;BME280;61084;55.816;37.036;2023-04-02T07:21:21;98951.19;;;9.33;67.21
72798;BME280;61084;55.816;37.036;2023-04-02T07:23:47;98959.06;;;9.33;67.01
72798;BME280;61084;55.816;37.036;2023-04-02T07:26:15;98962.63;;;9.32;67.21
72798;BME280;61084;55.816;37.036;2023-04-02T07:28:41;98964.22;;;9.35;67.36
72798;BME280;61084;55.816;37.036;2023-04-02T07:31:15;98966.59;;;9.39;66.96
72798;BME280;61084;55.816;37.036;2023-04-02T07:33:42;98968.28;;;9.40;66.89
72798;BME280;61084;55.816;37.036;2023-04-02T07:36:13;98960.41;;;9.40;67.02
72798;BME280;61084;55.816;37.036;2023-04-02T07:38:39;98973.41;;;9.42;66.97
72798;BME280;61084;55.816;37.036;2023-04-02T07:41:05;98967.16;;;9.44;66.91
72798;BME280;61084;55.816;37.036;2023-04-02T07:43:31;98962.63;;;9.48;66.73
72798;BME280;61084;55.816;37.036;2023-04-02T07:45:57;98968.44;;;9.53;66.92
72798;BME280;61084;55.816;37.036;2023-04-02T07:48:24;98961.31;;;9.55;66.62
72798;BME280;61084;55.816;37.036;2023-04-02T07:50:53;98962.88;;;9.59;66.89
72798;BME280;61084;55.816;37.036;2023-04-02T07:53:37;98960.41;;;9.56;66.38
72798;BME280;61084;55.816;37.036;2023-04-02T07:56:06;98969.13;;;9.56;66.68
72798;BME280;61084;55.816;37.036;2023-04-02T07:58:32;98963.63;;;9.61;66.61
72798;BME280;61084;55.816;37.036;2023-04-02T08:00:59;98961.66;;;9.64;66.61
72798;BME280;61084;55.816;37.036;2023-04-02T08:03:32;98959.06;;;9.64;66.40
72798;BME280;61084;55.816;37.036;2023-04-02T08:05:58;98968.44;;;9.68;66.25
72798;BME280;61084;55.816;37.036;2023-04-02T08:08:24;98961.31;;;9.70;66.00
72798;BME280;61084;55.816;37.036;2023-04-02T08:10:50;98960.31;;;9.73;66.22
72798;BME280;61084;55.816;37.036;2023-04-02T08:13:17;98956.78;;;9.74;66.07
72798;BME280;61084;55.816;37.036;2023-04-02T08:15:43;98956.66;;;9.75;65.84
72798;BME280;61084;55.816;37.036;2023-04-02T08:18:09;98953.97;;;9.77;65.96
72798;BME280;61084;55.816;37.036;2023-04-02T08:20:36;98954.81;;;9.77;65.69
72798;BME280;61084;55.816;37.036;2023-04-02T08:23:15;98961.56;;;9.81;66.04
72798;BME280;61084;55.816;37.036;2023-04-02T08:25:44;98952.78;;;9.82;65.79
72798;BME280;61084;55.816;37.036;2023-04-02T08:28:10;98956.91;;;9.86;66.03
72798;BME280;61084;55.816;37.036;2023-04-02T08:30:37;98961.97;;;9.89;65.88
72798;BME280;61084;55.816;37.036;2023-04-02T08:33:03;98961.03;;;9.91;65.97
72798;BME280;61084;55.816;37.036;2023-04-02T08:35:29;98958.41;;;9.91;65.90
72798;BME280;61084;55.816;37.036;2023-04-02T08:37:55;98964.41;;;9.93;65.74
72798;BME280;61084;55.816;37.036;2023-04-02T08:40:24;98962.56;;;9.95;65.55
72798;BME280;61084;55.816;37.036;2023-04-02T08:43:21;98963.31;;;9.97;65.41
72798;BME280;61084;55.816;37.036;2023-04-02T08:48:51;98959.66;;;9.99;65.61
72798;BME280;61084;55.816;37.036;2023-04-02T08:51:26;98964.66;;;10.04;65.57
72798;BME280;61084;55.816;37.036;2023-04-02T08:54:06;98965.41;;;10.06;65.45
72798;BME280;61084;55.816;37.036;2023-04-02T08:56:39;98963.63;;;10.06;65.39
72798;BME280;61084;55.816;37.036;2023-04-02T09:01:57;98966.06;;;10.09;65.52
72798;BME280;61084;55.816;37.036;2023-04-02T09:04:27;98963.19;;;10.14;65.58
72798;BME280;61084;55.816;37.036;2023-04-02T09:06:54;98965.66;;;10.17;65.39
72798;BME280;61084;55.816;37.036;2023-04-02T09:09:21;98970.00;;;10.18;65.33
72798;BME280;61084;55.816;37.036;2023-04-02T09:11:56;98970.00;;;10.18;65.81
72798;BME280;61084;55.816;37.036;2023-04-02T09:14:34;98969.78;;;10.21;65.38
72798;BME280;61084;55.816;37.036;2023-04-02T09:17:18;98967.00;;;10.24;65.44
72798;BME280;61084;55.816;37.036;2023-04-02T09:22:33;98971.22;;;10.26;65.25
72798;BME280;61084;55.816;37.036;2023-04-02T09:25:01;98968.41;;;10.29;65.37
72798;BME280;61084;55.816;37.036;2023-04-02T09:27:34;98975.25;;;10.32;65.37
72798;BME280;61084;55.816;37.036;2023-04-02T09:33:05;98972.47;;;10.35;65.11
72798;BME280;61084;55.816;37.036;2023-04-02T09:35:34;98967.69;;;10.41;65.29
72798;BME280;61084;55.816;37.036;2023-04-02T09:41:19;98966.59;;;10.45;64.99
72798;BME280;61084;55.816;37.036;2023-04-02T09:43:24;98967.34;;;10.47;64.91
72798;BME280;61084;55.816;37.036;2023-04-02T09:48:47;98968.25;;;10.46;64.90
72798;BME280;61084;55.816;37.036;2023-04-02T09:51:17;98966.31;;;10.50;64.69
72798;BME280;61084;55.816;37.036;2023-04-02T09:53:47;98976.06;;;10.48;65.11
72798;BME280;61084;55.816;37.036;2023-04-02T09:56:17;98971.28;;;10.54;64.74
72798;BME280;61084;55.816;37.036;2023-04-02T09:58:45;98966.69;;;10.58;65.05
72798;BME280;61084;55.816;37.036;2023-04-02T10:01:32;98974.66;;;10.56;64.91
72798;BME280;61084;55.816;37.036;2023-04-02T10:03:58;98968.56;;;10.56;64.65
72798;BME280;61084;55.816;37.036;2023-04-02T10:06:27;98977.47;;;10.53;64.86
72798;BME280;61084;55.816;37.036;2023-04-02T10:08:53;98972.84;;;10.57;64.66
72798;BME280;61084;55.816;37.036;2023-04-02T10:11:33;98979.97;;;10.55;64.57
72798;BME280;61084;55.816;37.036;2023-04-02T10:14:03;98971.94;;;10.58;64.59
72798;BME280;61084;55.816;37.036;2023-04-02T10:16:40;98969.69;;;10.66;64.72
72798;BME280;61084;55.816;37.036;2023-04-02T10:19:31;98971.75;;;10.75;64.69
72798;BME280;61084;55.816;37.036;2023-04-02T10:22:03;98966.06;;;10.83;64.58
72798;BME280;61084;55.816;37.036;2023-04-02T10:24:30;98974.75;;;10.83;64.30
72798;BME280;61084;55.816;37.036;2023-04-02T10:27:19;98967.19;;;10.93;64.44
72798;BME280;61084;55.816;37.036;2023-04-02T10:32:58;98971.97;;;11.00;64.14
72798;BME280;61084;55.816;37.036;2023-04-02T10:40:58;98975.59;;;11.26;64.11
72798;BME280;61084;55.816;37.036;2023-04-02T10:43:33;98967.06;;;11.36;64.12
72798;BME280;61084;55.816;37.036;2023-04-02T10:49:00;98969.28;;;11.57;63.83
72798;BME280;61084;55.816;37.036;2023-04-02T10:51:54;98971.59;;;11.61;63.73
72798;BME280;61084;55.816;37.036;2023-04-02T10:57:05;98972.72;;;11.71;63.39
72798;BME280;61084;55.816;37.036;2023-04-02T11:00:12;98974.41;;;11.72;63.10
72798;BME280;61084;55.816;37.036;2023-04-02T11:07:56;98975.63;;;11.81;62.92
72798;BME280;61084;55.816;37.036;2023-04-02T11:10:24;98979.50;;;11.88;63.00
72798;BME280;61084;55.816;37.036;2023-04-02T11:12:58;98980.91;;;11.93;62.94
72798;BME280;61084;55.816;37.036;2023-04-02T11:15:26;98978.28;;;11.93;62.53
72798;BME280;61084;55.816;37.036;2023-04-02T11:17:53;98991.34;;;11.95;62.78
72798;BME280;61084;55.816;37.036;2023-04-02T11:23:16;98986.63;;;12.00;62.42
72798;BME280;61084;55.816;37.036;2023-04-02T11:25:42;98983.88;;;12.01;62.11
72798;BME280;61084;55.816;37.036;2023-04-02T11:28:28;98984.31;;;12.08;62.44
72798;BME280;61084;55.816;37.036;2023-04-02T11:30:55;98986.03;;;12.09;62.30
72798;BME280;61084;55.816;37.036;2023-04-02T11:33:36;98988.75;;;12.07;62.55
72798;BME280;61084;55.816;37.036;2023-04-02T11:39:09;98986.63;;;12.00;62.09
72798;BME280;61084;55.816;37.036;2023-04-02T11:44:45;98980.69;;;11.96;61.55
72798;BME280;61084;55.816;37.036;2023-04-02T11:52:35;98993.97;;;11.95;61.76
72798;BME280;61084;55.816;37.036;2023-04-02T11:55:22;98990.00;;;12.02;61.83
72798;BME280;61084;55.816;37.036;2023-04-02T12:06:21;98982.13;;;12.15;61.72
72798;BME280;61084;55.816;37.036;2023-04-02T12:11:43;98986.06;;;12.22;61.34
72798;BME280;61084;55.816;37.036;2023-04-02T12:17:16;98992.25;;;12.21;61.53
72798;BME280;61084;55.816;37.036;2023-04-02T12:19:48;98987.94;;;12.20;61.37
72798;BME280;61084;55.816;37.036;2023-04-02T12:22:25;98991.50;;;12.19;61.25
72798;BME280;61084;55.816;37.036;2023-04-02T12:25:01;98997.72;;;12.18;61.51
72798;BME280;61084;55.816;37.036;2023-04-02T12:27:29;98989.00;;;12.17;61.54
72798;BME280;61084;55.816;37.036;2023-04-02T12:32:43;98988.38;;;12.26;60.93
72798;BME280;61084;55.816;37.036;2023-04-02T12:35:30;98988.09;;;12.31;61.17
72798;BME280;61084;55.816;37.036;2023-04-02T12:37:57;98996.59;;;12.34;60.95
72798;BME280;61084;55.816;37.036;2023-04-02T12:40:23;99001.03;;;12.34;61.25
72798;BME280;61084;55.816;37.036;2023-04-02T12:42:50;98988.91;;;12.31;61.56
72798;BME280;61084;55.816;37.036;2023-04-02T12:45:27;98990.16;;;12.26;61.06
72798;BME280;61084;55.816;37.036;2023-04-02T12:47:56;98991.31;;;12.22;61.07
72798;BME280;61084;55.816;37.036;2023-04-02T12:50:32;98993.09;;;12.21;60.88
72798;BME280;61084;55.816;37.036;2023-04-02T12:52:58;98992.91;;;12.24;61.21
72798;BME280;61084;55.816;37.036;2023-04-02T12:55:25;98992.69;;;12.27;60.87
72798;BME280;61084;55.816;37.036;2023-04-02T12:57:56;98991.84;;;12.27;61.06
72798;BME280;61084;55.816;37.036;2023-04-02T13:05:54;98988.81;;;12.33;60.93
72798;BME280;61084;55.816;37.036;2023-04-02T13:08:29;98993.97;;;12.34;61.03
72798;BME280;61084;55.816;37.036;2023-04-02T13:11:02;99001.03;;;12.34;60.75
72798;BME280;61084;55.816;37.036;2023-04-02T13:13:32;98989.75;;;12.32;60.79
72798;BME280;61084;55.816;37.036;2023-04-02T13:16:21;98997.53;;;12.33;60.92
72798;BME280;61084;55.816;37.036;2023-04-02T13:18:49;98995.69;;;12.35;60.87
72798;BME280;61084;55.816;37.036;2023-04-02T13:23:44;98998.94;;;12.39;60.68
72798;BME280;61084;55.816;37.036;2023-04-02T13:26:13;98990.94;;;12.40;60.83
72798;BME280;61084;55.816;37.036;2023-04-02T13:28:40;98992.72;;;12.40;60.72
72798;BME280;61084;55.816;37.036;2023-04-02T13:31:14;99001.47;;;12.40;60.71
72798;BME280;61084;55.816;37.036;2023-04-02T13:33:40;98997.97;;;12.40;60.90
72798;BME280;61084;55.816;37.036;2023-04-02T13:36:11;98998.81;;;12.40;60.65
72798;BME280;61084;55.816;37.036;2023-04-02T13:38:37;99003.91;;;12.43;60.72
72798;BME280;61084;55.816;37.036;2023-04-02T13:41:03;98996.75;;;12.45;60.63
72798;BME280;61084;55.816;37.036;2023-04-02T13:43:29;98997.59;;;12.46;61.05
72798;BME280;61084;55.816;37.036;2023-04-02T13:46:04;99002.94;;;12.44;60.38
72798;BME280;61084;55.816;37.036;2023-04-02T13:48:32;99003.03;;;12.43;60.38
72798;BME280;61084;55.816;37.036;2023-04-02T13:51:05;99000.53;;;12.41;60.26
72798;BME280;61084;55.816;37.036;2023-04-02T13:53:32;98997.91;;;12.41;60.49
72798;BME280;61084;55.816;37.036;2023-04-02T13:55:59;98996.94;;;12.42;60.40
72798;BME280;61084;55.816;37.036;2023-04-02T13:58:25;99000.31;;;12.44;60.45
72798;BME280;61084;55.816;37.036;2023-04-02T14:00:51;99006.31;;;12.46;60.43
72798;BME280;61084;55.816;37.036;2023-04-02T14:03:21;98996.53;;;12.48;60.60
72798;BME280;61084;55.816;37.036;2023-04-02T14:25:13;99006.72;;;12.40;60.09
72798;BME280;61084;55.816;37.036;2023-04-02T14:33:17;99002.41;;;12.39;60.04
72798;BME280;61084;55.816;37.036;2023-04-02T14:35:53;98998.94;;;12.39;60.05
72798;BME280;61084;55.816;37.036;2023-04-02T14:41:06;98992.72;;;12.40;59.93
72798;BME280;61084;55.816;37.036;2023-04-02T14:43:49;99001.38;;;12.42;60.12
72798;BME280;61084;55.816;37.036;2023-04-02T14:46:24;99005.78;;;12.41;59.96
72798;BME280;61084;55.816;37.036;2023-04-02T14:48:57;99005.88;;;12.40;60.05
72798;BME280;61084;55.816;37.036;2023-04-02T14:54:21;99002.41;;;12.39;59.65
72798;BME280;61084;55.816;37.036;2023-04-02T14:57:19;99001.56;;;12.39;59.67
72798;BME280;61084;55.816;37.036;2023-04-02T15:00:01;99000.72;;;12.38;59.78
72798;BME280;61084;55.816;37.036;2023-04-02T15:07:55;99001.75;;;12.36;59.77
72798;BME280;61084;55.816;37.036;2023-04-02T15:10:53;99013.25;;;12.35;59.69
72798;BME280;61084;55.816;37.036;2023-04-02T15:13:20;99007.25;;;12.33;59.54
72798;BME280;61084;55.816;37.036;2023-04-02T15:15:51;99001.31;;;12.29;59.63
72798;BME280;61084;55.816;37.036;2023-04-02T15:18:21;99008.41;;;12.29;59.74
72798;BME280;61084;55.816;37.036;2023-04-02T15:20:55;99004.81;;;12.30;59.75
72798;BME280;61084;55.816;37.036;2023-04-02T15:31:44;99016.91;;;12.20;59.96
72798;BME280;61084;55.816;37.036;2023-04-02T15:34:39;99014.25;;;12.20;60.07
72798;BME280;61084;55.816;37.036;2023-04-02T15:53:41;99030.59;;;11.98;61.76
72798;BME280;61084;55.816;37.036;2023-04-02T15:56:33;99033.41;;;11.95;61.88
72798;BME280;61084;55.816;37.036;2023-04-02T16:10:29;99054.88;;;11.75;62.96
72798;BME280;61084;55.816;37.036;2023-04-02T16:12:56;99055.09;;;11.72;63.09
72798;BME280;61084;55.816;37.036;2023-04-02T16:15:47;99058.84;;;11.68;63.34
72798;BME280;61084;55.816;37.036;2023-04-02T16:18:31;99066.88;;;11.65;63.43
72798;BME280;61084;55.816;37.036;2023-04-02T16:21:02;99072.31;;;11.62;63.64
72798;BME280;61084;55.816;37.036;2023-04-02T16:23:36;99065.47;;;11.59;63.82
72798;BME280;61084;55.816;37.036;2023-04-02T16:31:38;99085.38;;;11.49;64.03
72798;BME280;61084;55.816;37.036;2023-04-02T16:34:14;99081.25;;;11.45;64.14
72798;BME280;61084;55.816;37.036;2023-04-02T16:37:24;99089.25;;;11.44;64.39
72798;BME280;61084;55.816;37.036;2023-04-02T16:42:40;99088.84;;;11.35;64.42
72798;BME280;61084;55.816;37.036;2023-04-02T16:48:10;99088.38;;;11.29;64.69
72798;BME280;61084;55.816;37.036;2023-04-02T17:04:27;99095.97;;;11.05;65.29
72798;BME280;61084;55.816;37.036;2023-04-02T17:07:21;99091.94;;;11.00;65.59
72798;BME280;61084;55.816;37.036;2023-04-02T17:09:54;99087.59;;;10.99;65.41
72798;BME280;61084;55.816;37.036;2023-04-02T17:12:32;99085.06;;;10.97;65.49
72798;BME280;61084;55.816;37.036;2023-04-02T17:15:10;99091.34;;;10.95;65.48
72798;BME280;61084;55.816;37.036;2023-04-02T17:17:39;99091.53;;;10.92;65.52
72798;BME280;61084;55.816;37.036;2023-04-02T17:20:14;99096.00;;;10.90;65.84
72798;BME280;61084;55.816;37.036;2023-04-02T17:22:42;99098.00;;;10.86;65.83
72798;BME280;61084;55.816;37.036;2023-04-02T17:25:18;99100.78;;;10.83;66.12
72798;BME280;61084;55.816;37.036;2023-04-02T17:27:47;99095.63;;;10.82;65.89